Decoded Metar for YWLM (WILLIAMTOWN ARP in _UNIDENTIFIED) (IATA:N/A) | Meteo·Mobile Aviation Weather
aviador You're here:

YWLM Decoded Metar

WILLIAMTOWN ARP in _UNIDENTIFIED
Report Time2018-12-15 00:30:00
UTC Time2018-12-15 01:02:54
Flight Rules vfr VFR
Wind010° at 07 kt
W.Decomp.*RWY 30: 3.7 kt HW 5.9 kt RCW
W.Rank010° ranks 27
Current wind is above 010° avg. (5.2)
Visibility9999 m
Phenomena:N/A
Clouds:Scattered 023 Hf
Expected CloudBase > 2,800 ft AGL from Temp-Dew spread
CeilingNone
Temp29°C (ISA +14)
Dew Point22°C (66% RH)
Heat Index32.0°C
QNH1006 hPa
Density Alt2,228 ft
Elevation30 ft
Report Wrong Elevation
Raw Report
YWLM 150030Z AUTO 01007KT 9999 // SCT023 29/22 Q1006=

Extra information for YWLM:More info

Metar Taf Metar & Taf Last 4 Metars F.Rules Stats Wind Profile Meteogram Temp Stats Airport Information Weather charts Add Link Nearby VenuesMetar ALERT Operation Metar Decoded Social comments